createdAt,value
2023-02-25T00:00:58.942Z,88.40
2023-02-25T00:02:04.270Z,88.29
2023-02-25T00:02:58.908Z,87.88
2023-02-25T00:03:58.732Z,88.09
2023-02-25T00:04:58.701Z,88.29
2023-02-25T00:05:58.693Z,87.77
2023-02-25T00:06:58.687Z,87.42
2023-02-25T00:07:58.705Z,87.84
2023-02-25T00:08:58.638Z,86.69
2023-02-25T00:09:58.634Z,87.11
2023-02-25T00:10:58.646Z,86.17
2023-02-25T00:11:58.626Z,86.17
2023-02-25T00:13:12.109Z,85.75
2023-02-25T00:13:58.610Z,86.38
2023-02-25T00:14:58.586Z,86.69
2023-02-25T00:15:58.584Z,86.80
2023-02-25T00:16:58.601Z,86.17
2023-02-25T00:17:58.549Z,86.80
2023-02-25T00:18:58.566Z,87.11
2023-02-25T00:19:58.534Z,87.42
2023-02-25T00:20:58.540Z,86.80
2023-02-25T00:21:58.561Z,86.38
2023-02-25T00:22:58.513Z,86.27
2023-02-25T00:24:14.043Z,85.55
2023-02-25T00:24:58.529Z,85.24
2023-02-25T00:25:58.482Z,85.34
2023-02-25T00:26:58.474Z,85.13
2023-02-25T00:27:58.468Z,85.34
2023-02-25T00:28:58.460Z,85.75
2023-02-25T00:29:58.432Z,86.07
2023-02-25T00:30:58.719Z,85.13
2023-02-25T00:31:58.680Z,85.34
2023-02-25T00:32:58.448Z,85.80
2023-02-25T00:33:58.405Z,85.90
2023-02-25T00:34:58.379Z,85.06
2023-02-25T00:35:58.393Z,84.96
2023-02-25T00:36:58.469Z,84.96
2023-02-25T00:38:13.704Z,84.55
2023-02-25T00:38:58.402Z,84.75
2023-02-25T00:39:58.347Z,84.86
2023-02-25T00:40:58.331Z,84.96
2023-02-25T00:41:58.320Z,85.28
2023-02-25T00:42:58.321Z,85.17
2023-02-25T00:43:58.302Z,85.06
2023-02-25T00:44:58.303Z,84.75
2023-02-25T00:45:58.316Z,84.96
2023-02-25T00:46:58.283Z,84.65
2023-02-25T00:47:58.273Z,84.86
2023-02-25T00:48:58.280Z,84.96
2023-02-25T00:49:58.239Z,85.17
2023-02-25T00:50:58.234Z,84.96
2023-02-25T00:51:59.995Z,84.44
2023-02-25T00:52:58.207Z,84.65
2023-02-25T00:53:58.204Z,84.96
2023-02-25T00:54:58.177Z,84.44
2023-02-25T00:55:58.162Z,84.80
2023-02-25T00:56:58.189Z,85.38
2023-02-25T00:57:58.157Z,85.31
2023-02-25T00:58:58.184Z,85.42
2023-02-25T00:59:58.151Z,84.65
2023-02-25T01:00:58.129Z,84.90
2023-02-25T01:01:58.227Z,84.65
2023-02-25T01:02:58.166Z,84.86
2023-02-25T01:03:58.092Z,84.75
2023-02-25T01:04:58.128Z,84.55
2023-02-25T01:05:58.071Z,85.06
2023-02-25T01:06:58.108Z,84.86
2023-02-25T01:07:58.051Z,85.06
2023-02-25T01:08:58.055Z,84.75
2023-02-25T01:09:58.039Z,84.96
2023-02-25T01:10:58.060Z,84.55
2023-02-25T01:11:58.023Z,84.75
2023-02-25T01:12:58.015Z,84.55
2023-02-25T01:13:58.124Z,84.44
2023-02-25T01:14:57.985Z,85.06
2023-02-25T01:15:58.019Z,85.28
2023-02-25T01:16:57.981Z,85.06
2023-02-25T01:17:57.940Z,84.86
2023-02-25T01:18:57.961Z,85.06
2023-02-25T01:19:57.926Z,85.38
2023-02-25T01:20:57.912Z,84.96
2023-02-25T01:21:57.898Z,85.06
2023-02-25T01:22:57.886Z,85.17
2023-02-25T01:23:57.887Z,85.28
2023-02-25T01:24:57.926Z,85.17
2023-02-25T01:25:57.864Z,85.06
2023-02-25T01:26:57.872Z,85.49
2023-02-25T01:27:57.840Z,85.49
2023-02-25T01:28:57.828Z,85.28
2023-02-25T01:29:57.821Z,85.28
2023-02-25T01:30:57.972Z,84.55
2023-02-25T01:31:58.086Z,84.34
2023-02-25T01:32:57.863Z,83.09
2023-02-25T01:33:57.789Z,83.72
2023-02-25T01:34:57.785Z,84.03
2023-02-25T01:35:57.763Z,83.61
2023-02-25T01:36:57.786Z,83.20
2023-02-25T01:37:57.756Z,82.84
2023-02-25T01:38:57.764Z,83.26
2023-02-25T01:39:57.730Z,83.47
2023-02-25T01:40:57.746Z,83.16
2023-02-25T01:41:57.711Z,83.68
2023-02-25T01:42:57.700Z,83.40
2023-02-25T01:43:57.677Z,83.72
2023-02-25T01:44:57.679Z,83.61
2023-02-25T01:45:57.652Z,83.61
2023-02-25T01:46:57.785Z,83.20
2023-02-25T01:47:57.644Z,82.78
2023-02-25T01:48:57.639Z,82.99
2023-02-25T01:49:57.634Z,82.68
2023-02-25T01:50:57.618Z,82.99
2023-02-25T01:51:57.614Z,83.20
2023-02-25T01:52:57.632Z,83.40
2023-02-25T01:53:57.600Z,83.30
2023-02-25T01:54:57.584Z,83.40
2023-02-25T01:55:57.574Z,83.51
2023-02-25T01:56:57.561Z,83.30
2023-02-25T01:57:57.582Z,83.51
2023-02-25T01:58:57.536Z,83.72
2023-02-25T01:59:57.525Z,84.34
2023-02-25T02:00:57.605Z,84.75
2023-02-25T02:01:57.524Z,84.23
2023-02-25T02:02:57.516Z,83.61
2023-02-25T02:03:57.540Z,83.61
2023-02-25T02:04:57.479Z,83.92
2023-02-25T02:05:57.480Z,84.03
2023-02-25T02:06:57.455Z,83.82
2023-02-25T02:07:57.449Z,84.03
2023-02-25T02:08:57.428Z,84.23
2023-02-25T02:09:57.498Z,83.20
2023-02-25T02:10:57.420Z,83.09
2023-02-25T02:11:57.402Z,83.09
2023-02-25T02:12:57.402Z,83.09
2023-02-25T02:13:57.400Z,82.46
2023-02-25T02:14:57.429Z,81.84
2023-02-25T02:15:57.394Z,81.84
2023-02-25T02:16:57.370Z,81.43
2023-02-25T02:17:57.365Z,81.74
2023-02-25T02:18:57.350Z,81.84
2023-02-25T02:19:57.334Z,81.95
2023-02-25T02:20:57.335Z,82.05
2023-02-25T02:21:57.303Z,82.36
2023-02-25T02:22:57.288Z,82.05
2023-02-25T02:23:57.282Z,81.63
2023-02-25T02:24:57.275Z,81.95
2023-02-25T02:25:57.304Z,81.22
2023-02-25T02:26:57.247Z,81.32
2023-02-25T02:27:57.293Z,81.63
2023-02-25T02:28:57.244Z,81.74
2023-02-25T02:29:57.225Z,81.95
2023-02-25T02:30:57.249Z,82.15
2023-02-25T02:31:57.330Z,82.36
2023-02-25T02:32:57.221Z,82.57
2023-02-25T02:33:57.192Z,82.36
2023-02-25T02:34:57.202Z,82.26
2023-02-25T02:35:57.207Z,82.36
2023-02-25T02:36:57.155Z,82.36
2023-02-25T02:37:57.159Z,82.57
2023-02-25T02:38:57.134Z,82.46
2023-02-25T02:39:57.112Z,82.68
2023-02-25T02:40:57.113Z,82.89
2023-02-25T02:41:57.101Z,82.57
2023-02-25T02:42:57.093Z,82.46
2023-02-25T02:43:57.097Z,82.57
2023-02-25T02:44:57.087Z,82.40
2023-02-25T02:45:57.139Z,82.82
2023-02-25T02:46:57.055Z,82.20
2023-02-25T02:47:57.061Z,82.40
2023-02-25T02:48:57.067Z,82.30
2023-02-25T02:49:57.059Z,82.40
2023-02-25T02:50:57.012Z,82.26
2023-02-25T02:51:57.018Z,81.84
2023-02-25T02:52:56.984Z,81.63
2023-02-25T02:53:56.978Z,82.05
2023-02-25T02:54:56.975Z,82.05
2023-02-25T02:55:56.970Z,82.05
2023-02-25T02:56:56.934Z,81.95
2023-02-25T02:57:56.989Z,81.95
2023-02-25T02:58:56.970Z,82.05
2023-02-25T02:59:56.911Z,82.36
2023-02-25T03:00:56.942Z,82.26
2023-02-25T03:01:56.934Z,82.15
2023-02-25T03:02:56.886Z,82.46
2023-02-25T03:03:56.918Z,82.15
2023-02-25T03:04:56.856Z,82.30
2023-02-25T03:05:56.864Z,82.05
2023-02-25T03:06:56.843Z,82.51
2023-02-25T03:07:56.874Z,82.82
2023-02-25T03:08:56.808Z,83.03
2023-02-25T03:09:56.817Z,82.26
2023-02-25T03:10:56.790Z,82.26
2023-02-25T03:11:56.784Z,82.20
2023-02-25T03:12:56.765Z,82.51
2023-02-25T03:13:56.796Z,82.51
2023-02-25T03:14:56.741Z,82.51
2023-02-25T03:15:56.735Z,82.30
2023-02-25T03:16:56.776Z,82.20
2023-02-25T03:17:56.740Z,82.40
2023-02-25T03:18:56.718Z,82.30
2023-02-25T03:19:56.752Z,82.40
2023-02-25T03:20:56.687Z,82.20
2023-02-25T03:21:56.685Z,82.82
2023-02-25T03:22:56.671Z,82.92
2023-02-25T03:23:56.672Z,83.03
2023-02-25T03:24:56.642Z,82.71
2023-02-25T03:25:56.685Z,82.71
2023-02-25T03:26:56.628Z,82.82
2023-02-25T03:27:56.616Z,82.82
2023-02-25T03:28:56.598Z,82.89
2023-02-25T03:29:56.598Z,82.78
2023-02-25T03:30:56.654Z,83.09
2023-02-25T03:31:56.849Z,82.92
2023-02-25T03:32:56.568Z,83.03
2023-02-25T03:33:56.571Z,83.44
2023-02-25T03:34:56.556Z,83.54
2023-02-25T03:35:56.557Z,83.13
2023-02-25T03:36:56.518Z,83.03
2023-02-25T03:37:56.541Z,82.71
2023-02-25T03:38:56.508Z,82.61
2023-02-25T03:39:56.496Z,83.03
2023-02-25T03:40:56.506Z,82.92
2023-02-25T03:41:56.499Z,82.82
2023-02-25T03:42:56.468Z,82.61
2023-02-25T03:43:56.463Z,82.51
2023-02-25T03:44:56.466Z,82.71
2023-02-25T03:45:56.504Z,82.82
2023-02-25T03:46:56.454Z,82.51
2023-02-25T03:47:56.419Z,82.71
2023-02-25T03:48:56.404Z,82.82
2023-02-25T03:49:56.400Z,82.92
2023-02-25T03:50:56.371Z,83.34
2023-02-25T03:51:56.428Z,83.65
2023-02-25T03:52:56.362Z,83.86
2023-02-25T03:53:56.381Z,83.65
2023-02-25T03:54:56.332Z,83.34
2023-02-25T03:55:56.336Z,83.44
2023-02-25T03:56:56.333Z,82.71
2023-02-25T03:57:56.360Z,82.20
2023-02-25T03:58:56.291Z,81.67
2023-02-25T03:59:56.320Z,81.88
2023-02-25T04:00:56.271Z,82.40
2023-02-25T04:01:56.274Z,82.92
2023-02-25T04:02:56.306Z,83.03
2023-02-25T04:03:56.249Z,83.65
2023-02-25T04:04:56.346Z,83.13
2023-02-25T04:05:56.214Z,82.82
2023-02-25T04:06:56.202Z,82.92
2023-02-25T04:07:56.201Z,82.71
2023-02-25T04:08:56.216Z,82.40
2023-02-25T04:09:56.184Z,82.30
2023-02-25T04:10:56.178Z,82.92
2023-02-25T04:11:56.171Z,83.34
2023-02-25T04:12:56.163Z,83.65
2023-02-25T04:13:56.135Z,83.03
2023-02-25T04:14:56.146Z,83.03
2023-02-25T04:15:56.139Z,83.03
2023-02-25T04:16:56.100Z,83.23
2023-02-25T04:17:56.092Z,82.92
2023-02-25T04:18:56.084Z,83.65
2023-02-25T04:19:56.074Z,83.44
2023-02-25T04:20:56.097Z,83.13
2023-02-25T04:21:56.095Z,83.34
2023-02-25T04:22:56.058Z,83.44
2023-02-25T04:23:56.047Z,82.92
2023-02-25T04:24:56.031Z,82.82
2023-02-25T04:25:56.000Z,83.03
2023-02-25T04:26:56.034Z,82.61
2023-02-25T04:27:56.005Z,82.82
2023-02-25T04:28:55.976Z,82.92
2023-02-25T04:29:55.992Z,83.23
2023-02-25T04:30:56.143Z,83.34
2023-02-25T04:31:56.176Z,83.23
2023-02-25T04:32:55.944Z,83.75
2023-02-25T04:33:55.935Z,83.54
2023-02-25T04:34:55.922Z,83.65
2023-02-25T04:35:55.920Z,83.75
2023-02-25T04:36:55.915Z,83.54
2023-02-25T04:37:55.902Z,83.23
2023-02-25T04:38:55.888Z,82.82
2023-02-25T04:39:55.876Z,82.92
2023-02-25T04:40:55.851Z,82.30
2023-02-25T04:41:55.851Z,82.57
2023-02-25T04:42:56.327Z,81.84
2023-02-25T04:43:55.832Z,81.95
2023-02-25T04:44:55.830Z,82.15
2023-02-25T04:45:55.826Z,82.05
2023-02-25T04:46:55.796Z,82.05
2023-02-25T04:47:55.813Z,81.74
2023-02-25T04:48:55.810Z,81.84
2023-02-25T04:49:55.774Z,81.84
2023-02-25T04:50:55.758Z,81.43
2023-02-25T04:51:55.759Z,80.91
2023-02-25T04:52:55.725Z,81.32
2023-02-25T04:53:55.724Z,81.12
2023-02-25T04:54:55.741Z,80.29
2023-02-25T04:55:55.707Z,80.39
2023-02-25T04:56:55.709Z,80.60
2023-02-25T04:57:55.680Z,80.39
2023-02-25T04:58:55.660Z,80.70
2023-02-25T04:59:55.664Z,80.91
2023-02-25T05:00:55.695Z,80.77
2023-02-25T05:01:55.802Z,80.70
2023-02-25T05:02:55.655Z,80.70
2023-02-25T05:03:55.639Z,81.22
2023-02-25T05:04:55.732Z,81.43
2023-02-25T05:05:55.619Z,81.12
2023-02-25T05:06:55.625Z,80.91
2023-02-25T05:07:55.602Z,80.70
2023-02-25T05:08:55.569Z,80.70
2023-02-25T05:09:55.570Z,80.60
2023-02-25T05:10:55.565Z,81.01
2023-02-25T05:11:55.546Z,81.67
2023-02-25T05:12:55.574Z,81.98
2023-02-25T05:13:55.525Z,81.77
2023-02-25T05:14:55.520Z,81.98
2023-02-25T05:15:55.554Z,82.20
2023-02-25T05:16:55.493Z,82.40
2023-02-25T05:17:55.501Z,82.40
2023-02-25T05:18:55.533Z,82.20
2023-02-25T05:19:55.480Z,82.09
2023-02-25T05:20:55.465Z,82.20
2023-02-25T05:21:55.470Z,81.77
2023-02-25T05:22:55.443Z,81.98
2023-02-25T05:23:55.448Z,82.30
2023-02-25T05:24:55.452Z,82.40
2023-02-25T05:25:55.403Z,82.30
2023-02-25T05:26:55.392Z,82.82
2023-02-25T05:27:55.388Z,82.71
2023-02-25T05:28:55.389Z,82.40
2023-02-25T05:29:55.358Z,81.98
2023-02-25T05:30:55.497Z,81.77
2023-02-25T05:31:55.601Z,81.88
2023-02-25T05:32:55.514Z,82.40
2023-02-25T05:33:55.356Z,82.09
2023-02-25T05:34:55.314Z,81.98
2023-02-25T05:35:55.308Z,81.67
2023-02-25T05:36:55.325Z,81.77
2023-02-25T05:37:55.287Z,82.13
2023-02-25T05:38:55.278Z,82.13
2023-02-25T05:39:55.276Z,82.23
2023-02-25T05:40:55.236Z,82.54
2023-02-25T05:41:55.231Z,82.75
2023-02-25T05:42:55.253Z,82.75
2023-02-25T05:43:55.217Z,82.96
2023-02-25T05:44:55.216Z,82.34
2023-02-25T05:45:55.210Z,82.44
2023-02-25T05:46:55.279Z,82.44
2023-02-25T05:47:55.193Z,82.86
2023-02-25T05:48:55.243Z,82.75
2023-02-25T05:49:55.165Z,82.86
2023-02-25T05:50:55.143Z,82.86
2023-02-25T05:51:55.132Z,82.65
2023-02-25T05:52:55.117Z,82.86
2023-02-25T05:53:55.131Z,82.96
2023-02-25T05:54:55.132Z,83.37
2023-02-25T05:55:55.089Z,83.37
2023-02-25T05:56:55.091Z,82.96
2023-02-25T05:57:55.097Z,82.44
2023-02-25T05:58:55.065Z,82.54
2023-02-25T05:59:55.081Z,82.75
2023-02-25T06:00:55.071Z,82.65
2023-02-25T06:01:55.109Z,82.13
2023-02-25T06:02:55.051Z,82.44
2023-02-25T06:03:55.044Z,82.96
2023-02-25T06:04:54.998Z,82.86
2023-02-25T06:05:55.018Z,83.06
2023-02-25T06:06:54.976Z,83.48
2023-02-25T06:07:54.971Z,82.86
2023-02-25T06:08:54.947Z,82.23
2023-02-25T06:09:54.959Z,82.44
2023-02-25T06:10:54.940Z,82.44
2023-02-25T06:11:54.977Z,82.13
2023-02-25T06:12:54.927Z,82.34
2023-02-25T06:13:54.925Z,82.03
2023-02-25T06:14:54.900Z,82.13
2023-02-25T06:15:54.891Z,82.23
2023-02-25T06:16:54.973Z,82.23
2023-02-25T06:17:54.900Z,82.13
2023-02-25T06:18:54.874Z,82.20
2023-02-25T06:19:54.846Z,82.13
2023-02-25T06:20:54.849Z,82.13
2023-02-25T06:21:54.828Z,82.23
2023-02-25T06:22:54.823Z,82.65
2023-02-25T06:23:54.848Z,82.34
2023-02-25T06:24:54.793Z,81.92
2023-02-25T06:25:54.806Z,81.92
2023-02-25T06:26:54.776Z,82.34
2023-02-25T06:27:54.782Z,82.23
2023-02-25T06:28:54.755Z,82.34
2023-02-25T06:29:55.122Z,82.03
2023-02-25T06:30:54.919Z,82.30
2023-02-25T06:31:54.888Z,82.03
2023-02-25T06:32:54.911Z,82.40
2023-02-25T06:33:54.717Z,82.54
2023-02-25T06:34:54.697Z,82.54
2023-02-25T06:35:54.700Z,82.54
2023-02-25T06:36:54.681Z,82.44
2023-02-25T06:37:54.674Z,82.40
2023-02-25T06:38:54.672Z,82.03
2023-02-25T06:39:54.664Z,82.34
2023-02-25T06:40:54.701Z,81.46
2023-02-25T06:41:54.682Z,81.26
2023-02-25T06:42:54.631Z,81.57
2023-02-25T06:43:54.655Z,81.77
2023-02-25T06:44:54.611Z,81.88
2023-02-25T06:45:54.591Z,81.67
2023-02-25T06:46:54.573Z,81.77
2023-02-25T06:47:54.567Z,81.77
2023-02-25T06:48:54.563Z,81.98
2023-02-25T06:49:54.591Z,81.98
2023-02-25T06:50:54.561Z,81.67
2023-02-25T06:51:54.549Z,81.46
2023-02-25T06:52:54.505Z,81.46
2023-02-25T06:53:54.499Z,81.05
2023-02-25T06:54:54.508Z,81.05
2023-02-25T06:55:54.486Z,80.94
2023-02-25T06:56:54.478Z,81.26
2023-02-25T06:57:54.468Z,81.36
2023-02-25T06:58:54.461Z,81.67
2023-02-25T06:59:54.449Z,81.88
2023-02-25T07:00:54.529Z,81.57
2023-02-25T07:01:54.436Z,81.26
2023-02-25T07:02:54.427Z,81.05
2023-02-25T07:03:54.421Z,80.94
2023-02-25T07:04:54.533Z,81.05
2023-02-25T07:05:54.403Z,80.94
2023-02-25T07:06:54.420Z,81.36
2023-02-25T07:07:54.366Z,81.26
2023-02-25T07:08:54.339Z,81.26
2023-02-25T07:09:54.345Z,81.36
2023-02-25T07:10:54.337Z,81.05
2023-02-25T07:11:54.319Z,80.49
2023-02-25T07:12:54.334Z,80.49
2023-02-25T07:13:54.294Z,80.60
2023-02-25T07:14:54.288Z,80.60
2023-02-25T07:15:54.343Z,80.43
2023-02-25T07:16:54.327Z,80.80
2023-02-25T07:17:54.306Z,80.80
2023-02-25T07:18:54.260Z,80.91
2023-02-25T07:19:54.244Z,80.80
2023-02-25T07:20:54.232Z,80.60
2023-02-25T07:21:54.227Z,80.43
2023-02-25T07:22:54.213Z,80.53
2023-02-25T07:23:54.241Z,80.63
2023-02-25T07:24:54.244Z,80.84
2023-02-25T07:25:54.194Z,80.80
2023-02-25T07:26:54.199Z,80.80
2023-02-25T07:27:54.204Z,80.80
2023-02-25T07:28:54.194Z,81.22
2023-02-25T07:29:54.186Z,80.70
2023-02-25T07:30:54.310Z,81.01
2023-02-25T07:31:54.352Z,80.91
2023-02-25T07:32:54.142Z,81.12
2023-02-25T07:33:54.100Z,81.01
2023-02-25T07:34:54.094Z,81.12
2023-02-25T07:35:54.102Z,81.32
2023-02-25T07:36:54.072Z,80.49
2023-02-25T07:37:54.047Z,80.39
2023-02-25T07:38:54.051Z,80.80
2023-02-25T07:39:54.071Z,80.29
2023-02-25T07:40:54.084Z,80.80
2023-02-25T07:41:54.029Z,80.29
2023-02-25T07:42:54.020Z,80.49
2023-02-25T07:43:54.011Z,81.12
2023-02-25T07:44:53.993Z,80.60
2023-02-25T07:45:54.025Z,80.70
2023-02-25T07:46:54.027Z,80.70
2023-02-25T07:47:53.963Z,80.60
2023-02-25T07:48:53.942Z,80.39
2023-02-25T07:49:53.944Z,80.18
2023-02-25T07:50:53.934Z,80.60
2023-02-25T07:51:53.908Z,80.80
2023-02-25T07:52:54.238Z,80.60
2023-02-25T07:53:53.903Z,80.70
2023-02-25T07:54:53.914Z,81.12
2023-02-25T07:55:53.890Z,80.18
2023-02-25T07:56:53.865Z,79.62
2023-02-25T07:57:53.859Z,79.72
2023-02-25T07:58:53.861Z,79.94
2023-02-25T07:59:53.831Z,80.25
2023-02-25T08:00:53.830Z,80.35
2023-02-25T08:01:53.807Z,80.35
2023-02-25T08:02:53.864Z,80.56
2023-02-25T08:03:53.832Z,80.46
2023-02-25T08:04:53.905Z,80.15
2023-02-25T08:05:53.787Z,80.35
2023-02-25T08:06:53.776Z,80.46
2023-02-25T08:07:53.763Z,80.15
2023-02-25T08:08:53.766Z,80.35
2023-02-25T08:09:53.789Z,80.15
2023-02-25T08:10:53.748Z,80.15
2023-02-25T08:11:53.732Z,80.25
2023-02-25T08:12:53.701Z,79.62
2023-02-25T08:13:53.686Z,79.94
2023-02-25T08:14:53.703Z,79.58
2023-02-25T08:15:53.757Z,80.11
2023-02-25T08:16:53.669Z,79.69
2023-02-25T08:17:53.652Z,79.48
2023-02-25T08:18:53.670Z,79.58
2023-02-25T08:19:53.646Z,79.80
2023-02-25T08:20:53.662Z,79.80
2023-02-25T08:21:53.622Z,79.38
2023-02-25T08:22:53.616Z,79.38
2023-02-25T08:23:53.643Z,79.69
2023-02-25T08:24:53.586Z,79.27
2023-02-25T08:25:53.581Z,79.80
2023-02-25T08:26:53.592Z,79.48
2023-02-25T08:27:53.558Z,80.11
2023-02-25T08:28:53.556Z,80.52
2023-02-25T08:29:53.526Z,80.52
2023-02-25T08:30:53.642Z,80.32
2023-02-25T08:31:53.791Z,79.90
2023-02-25T08:32:53.633Z,80.32
2023-02-25T08:33:53.497Z,80.32
2023-02-25T08:34:53.492Z,79.38
2023-02-25T08:35:53.492Z,80.00
2023-02-25T08:36:53.464Z,80.73
2023-02-25T08:37:53.474Z,79.38
2023-02-25T08:38:53.493Z,80.00
2023-02-25T08:39:53.431Z,80.21
2023-02-25T08:40:53.426Z,80.00
2023-02-25T08:41:53.416Z,80.11
2023-02-25T08:42:53.403Z,80.63
2023-02-25T08:43:53.400Z,80.32
2023-02-25T08:44:53.438Z,80.00
2023-02-25T08:45:53.408Z,79.80
2023-02-25T08:46:53.424Z,80.11
2023-02-25T08:47:53.367Z,80.42
2023-02-25T08:48:53.363Z,80.42
2023-02-25T08:49:53.355Z,80.94
2023-02-25T08:50:53.357Z,81.04
2023-02-25T08:51:53.323Z,80.83
2023-02-25T08:52:53.310Z,80.73
2023-02-25T08:53:53.320Z,80.38
2023-02-25T08:54:53.276Z,80.69
2023-02-25T08:55:53.337Z,80.69
2023-02-25T08:56:53.270Z,80.59
2023-02-25T08:57:53.259Z,80.90
2023-02-25T08:58:53.248Z,80.59
2023-02-25T08:59:53.235Z,80.49
2023-02-25T09:00:53.327Z,80.69
2023-02-25T09:01:53.232Z,81.01
2023-02-25T09:02:53.200Z,81.01
2023-02-25T09:03:53.537Z,80.69
2023-02-25T09:04:53.330Z,81.42
2023-02-25T09:05:53.157Z,81.56
2023-02-25T09:06:53.165Z,82.39
2023-02-25T09:07:53.171Z,82.60
2023-02-25T09:08:53.146Z,83.64
2023-02-25T09:09:53.171Z,83.84
2023-02-25T09:10:53.123Z,84.16
2023-02-25T09:11:53.134Z,83.89
2023-02-25T09:12:53.108Z,83.26
2023-02-25T09:13:53.150Z,83.99
2023-02-25T09:14:53.089Z,84.09
2023-02-25T09:15:53.072Z,84.61
2023-02-25T09:16:53.246Z,85.34
2023-02-25T09:17:53.050Z,85.03
2023-02-25T09:18:53.040Z,84.82
2023-02-25T09:19:53.068Z,85.24
2023-02-25T09:20:53.030Z,85.44
2023-02-25T09:21:53.033Z,85.65
2023-02-25T09:22:53.003Z,85.44
2023-02-25T09:23:53.028Z,85.44
2023-02-25T09:24:53.006Z,85.65
2023-02-25T09:25:53.011Z,85.90
2023-02-25T09:26:52.974Z,86.83
2023-02-25T09:27:52.953Z,87.46
2023-02-25T09:28:52.953Z,87.35
2023-02-25T09:29:52.948Z,87.25
2023-02-25T09:30:53.024Z,86.94
2023-02-25T09:31:53.215Z,87.25
2023-02-25T09:32:53.130Z,88.33
2023-02-25T09:33:52.887Z,88.54
2023-02-25T09:34:52.883Z,88.96
2023-02-25T09:35:52.876Z,89.58
2023-02-25T09:36:52.858Z,89.79
2023-02-25T09:37:52.871Z,90.00
2023-02-25T09:38:52.838Z,89.58
2023-02-25T09:39:52.818Z,89.37
2023-02-25T09:40:52.824Z,89.27
2023-02-25T09:41:55.541Z,89.58
2023-02-25T09:42:52.868Z,89.58
2023-02-25T09:43:52.802Z,89.89
2023-02-25T09:44:52.786Z,90.31
2023-02-25T09:45:52.788Z,90.93
2023-02-25T09:46:52.773Z,90.52
2023-02-25T09:47:52.814Z,90.41
2023-02-25T09:48:52.763Z,89.79
2023-02-25T09:49:52.728Z,88.85
2023-02-25T09:50:52.723Z,88.64
2023-02-25T09:51:52.706Z,89.48
2023-02-25T09:52:52.692Z,89.58
2023-02-25T09:53:52.696Z,90.72
2023-02-25T09:54:52.673Z,90.72
2023-02-25T09:55:52.660Z,90.52
2023-02-25T09:56:52.671Z,90.00
2023-02-25T09:57:52.660Z,89.37
2023-02-25T09:58:52.646Z,89.58
2023-02-25T09:59:52.679Z,90.00
2023-02-25T10:00:55.228Z,90.00
2023-02-25T10:01:52.760Z,90.10
2023-02-25T10:02:52.768Z,90.72
2023-02-25T10:03:52.579Z,90.79
2023-02-25T10:04:52.581Z,90.37
2023-02-25T10:05:53.077Z,89.43
2023-02-25T10:06:52.575Z,90.23
2023-02-25T10:07:52.554Z,89.08
2023-02-25T10:08:52.568Z,89.18
2023-02-25T10:09:52.538Z,89.29
2023-02-25T10:10:52.530Z,89.60
2023-02-25T10:11:52.545Z,88.56
2023-02-25T10:12:52.500Z,88.56
2023-02-25T10:13:52.484Z,89.67
2023-02-25T10:14:52.490Z,90.29
2023-02-25T10:15:53.304Z,89.87
2023-02-25T10:16:52.498Z,87.90
2023-02-25T10:17:52.469Z,89.25
2023-02-25T10:18:52.428Z,90.29
2023-02-25T10:19:52.422Z,88.84
2023-02-25T10:20:52.441Z,89.73
2023-02-25T10:21:52.423Z,89.11
2023-02-25T10:22:52.408Z,87.76
2023-02-25T10:23:52.430Z,88.28
2023-02-25T10:24:52.382Z,88.00
2023-02-25T10:25:52.376Z,86.65
2023-02-25T10:26:52.364Z,87.45
2023-02-25T10:27:52.358Z,87.76
2023-02-25T10:28:52.338Z,87.34
2023-02-25T10:29:52.333Z,87.96
2023-02-25T10:30:52.449Z,87.76
2023-02-25T10:31:52.481Z,86.72
2023-02-25T10:32:52.373Z,87.45
2023-02-25T10:33:52.289Z,87.96
2023-02-25T10:34:52.282Z,86.51
2023-02-25T10:35:52.293Z,87.76
2023-02-25T10:36:52.255Z,86.72
2023-02-25T10:37:52.234Z,86.68
2023-02-25T10:38:52.260Z,86.16
2023-02-25T10:39:52.221Z,84.60
2023-02-25T10:40:52.216Z,85.95
2023-02-25T10:41:52.227Z,85.12
2023-02-25T10:42:52.187Z,85.64
2023-02-25T10:43:52.171Z,86.47
2023-02-25T10:44:52.177Z,86.68
2023-02-25T10:45:52.223Z,86.85
2023-02-25T10:46:52.173Z,87.37
2023-02-25T10:47:52.187Z,87.01
2023-02-25T10:48:52.144Z,86.08
2023-02-25T10:49:52.129Z,84.38
2023-02-25T10:50:52.852Z,85.63
2023-02-25T10:51:52.118Z,84.28
2023-02-25T10:52:52.087Z,81.27
2023-02-25T10:53:52.112Z,83.55
2023-02-25T10:54:52.074Z,84.42
2023-02-25T10:55:52.169Z,79.48
2023-02-25T10:56:52.044Z,80.18
2023-02-25T10:57:52.094Z,79.06
2023-02-25T10:58:52.035Z,80.83
2023-02-25T10:59:52.033Z,80.98
2023-02-25T11:00:52.017Z,80.46
2023-02-25T11:01:52.043Z,82.22
2023-02-25T11:02:52.073Z,80.87
2023-02-25T11:03:52.021Z,80.87
2023-02-25T11:04:51.976Z,79.94
2023-02-25T11:05:51.967Z,80.56
2023-02-25T11:06:51.971Z,79.83
2023-02-25T11:07:51.933Z,79.00
2023-02-25T11:08:51.937Z,79.72
2023-02-25T11:09:51.958Z,79.10
2023-02-25T11:10:51.916Z,79.31
2023-02-25T11:11:51.911Z,79.83
2023-02-25T11:12:51.899Z,79.10
2023-02-25T11:13:51.891Z,79.94
2023-02-25T11:14:51.933Z,79.41
2023-02-25T11:15:51.912Z,78.17
2023-02-25T11:16:51.862Z,79.21
2023-02-25T11:17:51.842Z,78.38
2023-02-25T11:18:51.825Z,77.96
2023-02-25T11:19:51.818Z,79.52
2023-02-25T11:20:51.840Z,79.69
2023-02-25T11:21:51.798Z,79.80
2023-02-25T11:22:51.783Z,78.03
2023-02-25T11:23:51.788Z,77.82
2023-02-25T11:24:51.779Z,77.82
2023-02-25T11:25:52.273Z,78.03
2023-02-25T11:26:51.778Z,76.16
2023-02-25T11:27:51.751Z,76.02
2023-02-25T11:28:51.738Z,77.16
2023-02-25T11:29:51.733Z,77.58
2023-02-25T11:30:51.861Z,76.54
2023-02-25T11:31:51.969Z,76.75
2023-02-25T11:32:51.765Z,76.09
2023-02-25T11:33:51.685Z,76.09
2023-02-25T11:34:51.663Z,75.36
2023-02-25T11:35:51.657Z,74.84
2023-02-25T11:36:51.649Z,75.05
2023-02-25T11:37:51.674Z,73.70
2023-02-25T11:38:51.616Z,72.87
2023-02-25T11:39:51.613Z,73.60
2023-02-25T11:40:51.630Z,74.11
2023-02-25T11:41:51.622Z,74.08
2023-02-25T11:42:51.601Z,73.77
2023-02-25T11:43:51.787Z,74.50
2023-02-25T11:44:51.578Z,74.08
2023-02-25T11:45:51.558Z,73.57
2023-02-25T11:46:51.557Z,73.05
2023-02-25T11:47:51.552Z,72.84
2023-02-25T11:48:51.523Z,72.53
2023-02-25T11:49:51.625Z,72.32
2023-02-25T11:50:51.508Z,73.32
2023-02-25T11:51:51.495Z,74.15
2023-02-25T11:52:51.494Z,75.40
2023-02-25T11:53:51.547Z,75.19
2023-02-25T11:54:51.474Z,74.50
2023-02-25T11:55:51.489Z,72.84
2023-02-25T11:56:51.457Z,73.91
2023-02-25T11:57:51.451Z,75.26
2023-02-25T11:58:51.440Z,74.95
2023-02-25T11:59:51.425Z,74.43
2023-02-25T12:00:51.403Z,74.22
2023-02-25T12:01:51.427Z,71.34
2023-02-25T12:02:51.531Z,71.55
2023-02-25T12:03:51.415Z,71.55
2023-02-25T12:04:51.388Z,72.49
2023-02-25T12:05:51.397Z,73.46
2023-02-25T12:06:51.348Z,74.18
2023-02-25T12:08:11.850Z,75.15
2023-02-25T12:08:51.337Z,76.23
2023-02-25T12:09:51.327Z,78.41
2023-02-25T12:10:51.311Z,79.91
2023-02-25T12:11:51.300Z,80.74
2023-02-25T12:12:51.284Z,81.05
2023-02-25T12:13:51.424Z,81.67
2023-02-25T12:14:51.264Z,82.09
2023-02-25T12:15:51.256Z,82.13
2023-02-25T12:16:51.299Z,82.75
2023-02-25T12:17:51.235Z,82.75
2023-02-25T12:18:51.217Z,81.71
2023-02-25T12:19:51.214Z,80.57
2023-02-25T12:20:51.206Z,80.77
2023-02-25T12:21:51.212Z,79.94
2023-02-25T12:22:51.219Z,79.52
2023-02-25T12:23:51.175Z,79.32
2023-02-25T12:24:51.162Z,80.01
2023-02-25T12:25:51.158Z,78.66
2023-02-25T12:26:51.146Z,78.86
2023-02-25T12:27:51.152Z,76.68
2023-02-25T12:28:51.370Z,77.40
2023-02-25T12:29:51.100Z,78.24
2023-02-25T12:30:51.119Z,76.12
2023-02-25T12:31:51.166Z,76.64
2023-02-25T12:32:51.173Z,76.54
2023-02-25T12:33:51.071Z,76.40
2023-02-25T12:34:51.094Z,73.91
2023-02-25T12:35:51.052Z,73.39
2023-02-25T12:36:51.057Z,73.46
2023-02-25T12:37:51.051Z,74.18
2023-02-25T12:38:51.030Z,72.73
2023-02-25T12:39:51.016Z,72.07
2023-02-25T12:40:51.033Z,69.58
2023-02-25T12:41:53.174Z,67.37
2023-02-25T12:42:50.964Z,65.08
2023-02-25T12:43:50.973Z,64.98
2023-02-25T12:44:50.975Z,64.23
2023-02-25T12:45:51.078Z,64.02
2023-02-25T12:46:50.967Z,64.75
2023-02-25T12:47:50.947Z,65.26
2023-02-25T12:48:50.926Z,66.06
2023-02-25T12:49:50.908Z,67.30
2023-02-25T12:50:50.906Z,65.10
2023-02-25T12:51:50.928Z,65.10
2023-02-25T12:52:50.900Z,65.00